Time;durP1;ratioP1;P1;durP2;ratioP2;P2;SDS_P1;SDS_P2;PMS_P1;PMS_P2;Temp;Humidity;BMP_temperature;BMP_pressure;BME280_temperature;BME280_humidity;BME280_pressure;Samples;Min_cycle;Max_cycle;Signal;HPM_P1;HPM_P2
2022/07/16 00:01:23;;;;;;;4.42;2.27;;;;;;;15.80;88.10;100379.05;1692434;82;21451;-63
2022/07/16 00:03:59;;;;;;;3.67;2.52;;;;;;;15.79;88.17;100380.10;1706535;82;21079;-67
2022/07/16 00:06:28;;;;;;;4.72;2.15;;;;;;;15.72;88.40;100371.53;1703436;83;21020;-63
2022/07/16 00:08:55;;;;;;;2.47;2.12;;;;;;;15.72;88.40;100371.53;1698929;82;21084;-64
2022/07/16 00:11:23;;;;;;;1.92;1.82;;;;;;;15.70;88.82;100384.37;1700182;83;23730;-63
2022/07/16 00:13:49;;;;;;;2.52;2.17;;;;;;;15.67;89.29;100387.52;1664658;84;21062;-63
2022/07/16 00:16:16;;;;;;;4.25;2.75;;;;;;;15.63;89.47;100382.78;1667944;84;21116;-64
2022/07/16 00:21:33;;;;;;;3.52;2.75;;;;;;;15.54;90.16;100388.45;1673257;84;21130;-64
2022/07/16 00:24:00;;;;;;;4.47;2.15;;;;;;;15.48;90.43;100389.33;1709045;82;21219;-62
2022/07/16 00:26:26;;;;;;;5.95;2.47;;;;;;;15.47;90.68;100386.86;1704582;82;21652;-62
2022/07/16 00:28:52;;;;;;;4.55;2.45;;;;;;;15.45;90.93;100383.58;1707823;83;21046;-62
2022/07/16 00:31:18;;;;;;;;;;;;;;;15.45;91.12;100387.61;1711001;82;21069;-63
2022/07/16 00:33:44;;;;;;;2.98;2.37;;;;;;;15.44;91.25;100392.66;1706668;82;20168;-62
2022/07/16 00:36:11;;;;;;;;;;;;;;;15.35;91.63;100391.59;1708141;84;21533;-63
2022/07/16 00:38:37;;;;;;;3.17;2.83;;;;;;;15.33;91.76;100389.66;1700542;83;20112;-63
2022/07/16 00:41:04;;;;;;;6.05;2.87;;;;;;;15.26;92.02;100385.38;1705952;82;21050;-63
2022/07/16 00:43:30;;;;;;;;;;;;;;;15.25;92.21;100382.38;1687365;84;21002;-62
2022/07/16 00:45:56;;;;;;;3.08;2.87;;;;;;;15.26;92.23;100387.53;1651035;85;20148;-67
2022/07/16 00:48:22;;;;;;;3.77;2.87;;;;;;;15.19;92.44;100388.09;1647048;85;21031;-64
2022/07/16 00:50:48;;;;;;;4.95;3.10;;;;;;;15.19;92.71;100390.78;1648933;85;21500;-63
2022/07/16 00:53:15;;;;;;;5.35;3.02;;;;;;;15.16;92.67;100389.86;1650314;85;21203;-64
2022/07/16 00:55:41;;;;;;;3.25;2.98;;;;;;;15.13;92.62;100388.97;1648242;85;21078;-64
2022/07/16 00:58:07;;;;;;;4.83;2.67;;;;;;;15.11;93.04;100388.38;1652065;85;21019;-64
2022/07/16 01:00:33;;;;;;;2.95;2.75;;;;;;;15.08;93.08;100388.27;1666558;84;21066;-64
2022/07/16 01:03:02;;;;;;;3.30;2.98;;;;;;;15.04;93.06;100387.05;1660402;84;21166;-69
2022/07/16 01:05:29;;;;;;;2.58;2.47;;;;;;;15.02;93.39;100384.30;1668006;84;21369;-63
2022/07/16 01:07:56;;;;;;;;;;;;;;;15.02;93.73;100385.64;1666986;84;21064;-64
2022/07/16 01:10:23;;;;;;;3.42;2.52;;;;;;;15.01;93.94;100388.01;1665880;84;20419;-65
2022/07/16 01:12:51;;;;;;;2.92;2.58;;;;;;;14.94;94.21;100388.88;1655076;84;21025;-65
2022/07/16 01:15:19;;;;;;;3.55;2.42;;;;;;;14.95;94.25;100386.48;1669073;84;21020;-64
2022/07/16 01:17:46;;;;;;;4.10;3.25;;;;;;;14.97;94.23;100388.45;1668918;84;21897;-63
2022/07/16 01:20:12;;;;;;;;;;;;;;;14.97;94.12;100381.75;1637673;86;21048;-63
2022/07/16 01:22:39;;;;;;;2.52;2.37;;;;;;;14.96;93.98;100382.77;1666563;84;20165;-63
2022/07/16 01:25:10;;;;;;;2.80;2.60;;;;;;;14.91;94.18;100385.27;1647733;86;21059;-64
2022/07/16 01:27:36;;;;;;;4.95;2.40;;;;;;;14.92;94.04;100388.27;1659975;84;21487;-63
2022/07/16 01:30:08;;;;;;;3.12;2.50;;;;;;;14.91;93.99;100387.14;1648438;86;21110;-64
2022/07/16 01:32:38;;;;;;;4.35;1.80;;;;;;;14.83;94.11;100372.65;1665195;85;21098;-63
2022/07/16 01:35:07;;;;;;;4.47;2.58;;;;;;;14.92;94.30;100386.12;1689450;83;21010;-62
2022/07/16 01:37:33;;;;;;;2.50;2.40;;;;;;;14.94;94.23;100390.22;1696615;83;21022;-64
2022/07/16 01:40:00;;;;;;;3.42;2.30;;;;;;;14.95;94.11;100392.38;1693093;83;21126;-62
2022/07/16 01:42:26;;;;;;;2.98;2.83;;;;;;;14.93;93.83;100393.93;1695309;83;21054;-63
2022/07/16 01:44:53;;;;;;;2.30;1.87;;;;;;;14.92;93.78;100396.33;1683655;83;21069;-63
2022/07/16 01:47:19;;;;;;;2.77;2.47;;;;;;;14.93;93.99;100397.14;1663344;85;21014;-63
2022/07/16 01:49:48;;;;;;;1.98;1.80;;;;;;;14.93;93.82;100394.45;1661812;85;21778;-62
2022/07/16 01:52:20;;;;;;;3.72;1.85;;;;;;;14.94;93.78;100401.48;1664007;85;21056;-63
2022/07/16 01:54:50;;;;;;;2.05;1.95;;;;;;;14.92;93.60;100397.67;1664121;85;21128;-64
2022/07/16 01:57:19;;;;;;;1.75;1.65;;;;;;;14.90;93.45;100397.56;1683071;83;21030;-65
2022/07/16 01:59:47;;;;;;;2.47;2.30;;;;;;;14.87;93.44;100407.41;1669853;84;21113;-62
2022/07/16 02:02:14;;;;;;;3.02;2.40;;;;;;;14.84;93.41;100399.77;1663547;85;21059;-65
2022/07/16 02:04:42;;;;;;;2.85;1.92;;;;;;;14.81;93.11;100405.06;1683804;84;21050;-63
2022/07/16 02:07:09;;;;;;;2.67;2.47;;;;;;;14.75;93.02;100399.22;1675232;84;21030;-63
2022/07/16 02:09:35;;;;;;;1.92;1.92;;;;;;;14.70;93.14;100399.84;1686286;84;21115;-62
2022/07/16 02:12:02;;;;;;;3.42;3.15;;;;;;;14.66;93.41;100398.62;1680406;83;21565;-62
2022/07/16 02:14:28;;;;;;;3.12;2.80;;;;;;;14.62;93.40;100392.05;1672100;84;21082;-61
2022/07/16 02:16:55;;;;;;;2.90;2.60;;;;;;;14.57;93.44;100399.37;1657084;84;21062;-62
2022/07/16 02:19:21;;;;;;;3.92;3.60;;;;;;;14.55;93.58;100404.62;1661345;84;21092;-63
2022/07/16 02:21:47;;;;;;;3.67;3.40;;;;;;;14.52;93.70;100407.23;1673529;84;21613;-62
2022/07/16 02:24:13;;;;;;;;;;;;;;;14.49;93.68;100404.14;1641914;85;21056;-64
2022/07/16 02:26:39;;;;;;;3.40;3.12;;;;;;;14.48;93.77;100403.83;1668699;85;20527;-66
2022/07/16 02:29:05;;;;;;;3.98;3.67;;;;;;;14.40;94.28;100400.87;1668429;85;21057;-62
2022/07/16 02:31:31;;;;;;;;;;;;;;;14.42;94.58;100406.84;1631941;85;21185;-65
2022/07/16 02:33:57;;;;;;;3.95;3.15;;;;;;;14.46;94.63;100411.27;1685550;82;20186;-63
2022/07/16 02:36:23;;;;;;;4.28;3.98;;;;;;;14.59;95.75;100417.95;1718204;82;21022;-63
2022/07/16 02:38:50;;;;;;;3.15;2.95;;;;;;;14.83;95.73;100411.03;1715813;82;21057;-63
2022/07/16 02:41:16;;;;;;;6.00;2.90;;;;;;;15.00;93.88;100416.72;1724671;83;21049;-64
2022/07/16 02:43:43;;;;;;;4.28;2.83;;;;;;;15.05;92.60;100412.03;1717176;82;21018;-63
2022/07/16 02:46:10;;;;;;;2.30;2.15;;;;;;;15.10;92.19;100415.71;1706016;82;21027;-64
2022/07/16 02:48:37;;;;;;;;;;;;;;;15.28;92.60;100412.83;1719073;83;21140;-64
2022/07/16 02:51:03;;;;;;;2.98;1.55;;;;;;;15.45;91.49;100411.25;1715825;82;20171;-63
2022/07/16 02:53:32;;;;;;;3.35;1.80;;;;;;;15.50;90.28;100407.89;1720075;82;21181;-63
2022/07/16 02:55:58;;;;;;;3.62;1.75;;;;;;;15.55;89.24;100412.09;1718669;82;20967;-63
2022/07/16 02:58:25;;;;;;;1.62;1.52;;;;;;;15.63;88.89;100405.63;1717885;82;21017;-63
2022/07/16 03:00:51;;;;;;;3.25;1.67;;;;;;;15.86;89.24;100411.25;1715624;83;21022;-64
2022/07/16 03:03:18;;;;;;;2.45;1.37;;;;;;;17.06;86.04;100403.09;1715213;82;21033;-65
2022/07/16 03:05:44;;;;;;;1.52;0.95;;;;;;;17.06;86.04;100403.09;1720411;82;21053;-65
2022/07/16 03:08:11;;;;;;;5.25;1.25;;;;;;;17.77;82.62;100404.56;1690797;83;21073;-64
2022/07/16 03:10:37;;;;;;;1.52;0.72;;;;;;;18.48;78.25;100408.02;1688280;83;21515;-64
2022/07/16 03:13:03;;;;;;;1.07;0.85;;;;;;;19.15;73.88;100405.25;1675497;83;21078;-66
2022/07/16 03:15:30;;;;;;;;;;;;;;;19.75;69.56;100400.30;1691554;83;21114;-65
2022/07/16 03:17:56;;;;;;;2.15;0.42;;;;;;;20.26;65.08;100408.31;1691419;83;20160;-65
2022/07/16 03:20:23;;;;;;;;;;;;;;;20.65;63.81;100402.33;1689667;83;21462;-65
2022/07/16 03:22:49;;;;;;;4.40;0.40;;;;;;;21.11;60.96;100406.84;1650941;84;20426;-65
2022/07/16 03:25:16;;;;;;;1.47;0.70;;;;;;;21.35;59.38;100406.53;1676109;84;20996;-65
2022/07/16 03:27:44;;;;;;;0.70;0.70;;;;;;;21.64;58.34;100407.59;1690142;83;21580;-67
2022/07/16 03:30:11;;;;;;;2.12;0.30;;;;;;;21.93;56.63;100400.73;1686343;83;21101;-66
2022/07/16 03:32:38;;;;;;;1.52;0.50;;;;;;;22.13;55.69;100399.20;1687465;85;21026;-65
2022/07/16 03:35:08;;;;;;;0.53;0.20;;;;;;;22.28;54.62;100399.33;1675623;82;21006;-66
2022/07/16 03:40:24;;;;;;;3.55;0.37;;;;;;;22.44;54.22;100412.97;1680138;83;21032;-66
2022/07/16 03:42:51;;;;;;;0.35;0.20;;;;;;;22.72;53.75;100409.80;1685724;83;21060;-64
2022/07/16 03:45:17;;;;;;;0.60;0.50;;;;;;;23.00;52.18;100411.77;1674633;83;21051;-65
2022/07/16 03:47:43;;;;;;;1.05;0.50;;;;;;;23.20;51.39;100412.91;1686283;84;21042;-68
2022/07/16 03:50:10;;;;;;;1.02;0.20;;;;;;;23.28;51.05;100413.19;1679467;83;21150;-65
2022/07/16 03:52:37;;;;;;;1.20;0.60;;;;;;;23.19;51.04;100415.33;1683879;83;21145;-67
2022/07/16 03:55:05;;;;;;;1.30;0.40;;;;;;;23.08;52.02;100420.77;1686153;83;21111;-67
2022/07/16 03:57:31;;;;;;;1.65;0.28;;;;;;;23.21;51.32;100414.00;1683416;83;21508;-66
2022/07/16 03:59:57;;;;;;;1.90;0.30;;;;;;;23.31;50.88;100416.70;1687136;83;21078;-66
2022/07/16 04:02:23;;;;;;;1.42;0.62;;;;;;;23.53;50.41;100411.55;1689284;83;21053;-66
2022/07/16 04:04:50;;;;;;;2.42;0.62;;;;;;;23.85;50.11;100419.98;1680897;83;20975;-66
2022/07/16 04:07:16;;;;;;;0.53;0.53;;;;;;;24.15;49.37;100415.02;1676497;83;21128;-68
2022/07/16 04:09:43;;;;;;;1.65;0.60;;;;;;;24.47;48.68;100411.08;1670240;83;21129;-65
2022/07/16 04:12:09;;;;;;;0.75;0.45;;;;;;;24.79;47.30;100420.73;1681203;84;21014;-65
2022/07/16 04:14:35;;;;;;;3.30;0.50;;;;;;;24.92;46.34;100413.85;1689088;83;21478;-66
2022/07/16 04:17:03;;;;;;;2.20;0.68;;;;;;;24.92;46.52;100416.58;1679680;83;21484;-66
2022/07/16 04:19:29;;;;;;;2.80;0.85;;;;;;;25.01;46.48;100415.69;1685054;83;21167;-66
2022/07/16 04:21:56;;;;;;;3.12;0.53;;;;;;;25.21;45.93;100422.93;1685643;83;21054;-65
2022/07/16 04:24:22;;;;;;;3.27;0.55;;;;;;;25.42;44.57;100425.53;1671140;82;20985;-66
2022/07/16 04:26:48;;;;;;;3.42;0.47;;;;;;;25.57;44.23;100421.86;1689993;83;21641;-66
2022/07/16 04:29:15;;;;;;;2.47;0.72;;;;;;;25.56;44.31;100421.58;1686253;84;20979;-66
2022/07/16 04:31:41;;;;;;;1.32;0.68;;;;;;;25.64;44.12;100419.06;1682895;83;21096;-66
2022/07/16 04:34:08;;;;;;;3.98;0.60;;;;;;;25.67;44.12;100420.95;1689916;85;22221;-67
2022/07/16 04:36:34;;;;;;;1.52;0.40;;;;;;;25.72;44.10;100422.27;1683032;83;21010;-68
2022/07/16 04:39:02;;;;;;;4.45;2.10;;;;;;;25.67;43.58;100420.95;1679982;83;21569;-66
2022/07/16 04:41:28;;;;;;;3.80;0.80;;;;;;;25.53;44.50;100424.91;1687561;83;21060;-67
2022/07/16 04:43:54;;;;;;;2.95;0.40;;;;;;;25.59;44.58;100427.28;1688839;83;21470;-67
2022/07/16 04:46:21;;;;;;;1.02;0.53;;;;;;;25.80;43.95;100418.91;1684048;85;21096;-72
2022/07/16 04:48:47;;;;;;;0.88;0.47;;;;;;;26.02;43.03;100415.71;1684987;83;21533;-71
2022/07/16 04:51:13;;;;;;;0.68;0.30;;;;;;;26.06;41.85;100418.12;1692242;83;21040;-71
2022/07/16 04:53:39;;;;;;;1.45;0.33;;;;;;;25.90;41.48;100413.36;1687110;85;21474;-73
2022/07/16 04:56:06;;;;;;;2.70;0.62;;;;;;;25.61;41.97;100414.72;1676168;83;21089;-72
2022/07/16 04:58:33;;;;;;;1.15;0.40;;;;;;;25.53;41.75;100420.81;1690902;83;21047;-75
2022/07/16 05:01:01;;;;;;;1.75;0.40;;;;;;;25.52;41.79;100424.63;1688993;83;21104;-74
2022/07/16 05:03:27;;;;;;;2.45;0.53;;;;;;;25.57;41.93;100426.76;1691822;83;21041;-74
2022/07/16 05:05:53;;;;;;;2.58;0.60;;;;;;;25.37;42.61;100420.94;1687814;84;21085;-71
2022/07/16 05:08:20;;;;;;;1.55;0.78;;;;;;;25.24;43.26;100429.75;1682801;85;21121;-66
2022/07/16 05:10:47;;;;;;;0.90;0.60;;;;;;;25.24;42.72;100427.02;1687163;84;21140;-66
2022/07/16 05:13:14;;;;;;;4.97;0.30;;;;;;;25.21;42.56;100424.84;1682226;83;21010;-65
2022/07/16 05:15:40;;;;;;;2.05;0.20;;;;;;;25.19;42.66;100431.14;1684452;85;22575;-64
2022/07/16 05:18:08;;;;;;;1.67;0.47;;;;;;;25.41;42.01;100425.25;1689986;83;21549;-66
2022/07/16 05:20:35;;;;;;;1.22;0.23;;;;;;;25.62;41.71;100425.91;1684292;83;21066;-63
2022/07/16 05:23:01;;;;;;;0.62;0.20;;;;;;;25.68;40.37;100422.59;1683869;83;21072;-64
2022/07/16 05:25:28;;;;;;;0.70;0.33;;;;;;;25.72;40.24;100426.37;1684940;83;21474;-65
2022/07/16 05:27:54;;;;;;;1.05;0.30;;;;;;;25.80;39.97;100425.17;1681623;84;21045;-64
2022/07/16 05:30:20;;;;;;;0.60;0.20;;;;;;;25.92;40.43;100423.47;1689206;85;21038;-66
2022/07/16 05:32:47;;;;;;;0.88;0.30;;;;;;;26.08;39.42;100421.38;1690130;83;21044;-66
2022/07/16 05:35:15;;;;;;;1.75;0.47;;;;;;;26.14;38.70;100424.86;1690418;83;21024;-66
2022/07/16 05:37:44;;;;;;;1.95;0.30;;;;;;;26.15;39.59;100425.94;1687860;83;21025;-67
2022/07/16 05:40:14;;;;;;;1.85;0.20;;;;;;;26.07;38.97;100422.49;1687634;85;21104;-66
2022/07/16 05:42:40;;;;;;;0.47;0.20;;;;;;;25.86;39.81;100430.03;1689624;83;21304;-70
2022/07/16 05:45:08;;;;;;;1.47;0.42;;;;;;;25.72;40.12;100427.73;1686619;83;21536;-71
2022/07/16 05:47:36;;;;;;;0.72;0.33;;;;;;;25.50;40.83;100426.83;1667734;85;21097;-73
2022/07/16 05:50:06;;;;;;;0.70;0.40;;;;;;;25.33;40.37;100425.88;1677395;84;21116;-73
2022/07/16 05:52:33;;;;;;;1.30;0.55;;;;;;;25.13;40.91;100429.52;1689890;83;21291;-73
2022/07/16 05:54:59;;;;;;;0.62;0.20;;;;;;;25.15;42.15;100431.45;1690411;83;21521;-74
2022/07/16 05:57:26;;;;;;;1.22;0.40;;;;;;;25.25;41.23;100426.74;1687428;82;21196;-73
2022/07/16 05:59:52;;;;;;;0.70;0.33;;;;;;;25.18;41.66;100437.68;1687232;83;21661;-74
2022/07/16 06:02:18;;;;;;;1.32;0.30;;;;;;;25.19;41.87;100431.14;1688945;83;21023;-77
2022/07/16 06:04:44;;;;;;;1.30;0.30;;;;;;;25.06;43.13;100429.30;1684288;83;21143;-71
2022/07/16 06:07:11;;;;;;;0.40;0.35;;;;;;;25.05;42.26;100423.59;1687230;85;21072;-74
2022/07/16 06:09:37;;;;;;;1.77;0.57;;;;;;;25.07;42.76;100428.74;1681357;83;21068;-71
2022/07/16 06:12:05;;;;;;;1.07;0.53;;;;;;;25.13;42.85;100426.80;1685047;85;20970;-71
2022/07/16 06:14:33;;;;;;;0.50;0.37;;;;;;;25.29;42.96;100428.91;1680473;83;21554;-71
2022/07/16 06:16:59;;;;;;;0.95;0.40;;;;;;;25.39;42.35;100431.02;1682362;83;21136;-71
2022/07/16 06:19:27;;;;;;;3.58;0.30;;;;;;;25.54;42.25;100431.97;1690635;85;21066;-72
2022/07/16 06:21:53;;;;;;;0.40;0.37;;;;;;;25.65;40.54;100429.41;1688548;85;21552;-73
2022/07/16 06:24:19;;;;;;;2.33;0.30;;;;;;;25.62;40.56;100428.64;1688630;83;20981;-72
2022/07/16 06:26:49;;;;;;;3.25;0.40;;;;;;;25.59;40.33;100422.38;1689435;83;21021;-70
2022/07/16 06:29:17;;;;;;;0.62;0.20;;;;;;;25.59;39.27;100425.92;1687957;84;21065;-73
2022/07/16 06:31:44;;;;;;;3.80;0.40;;;;;;;25.64;38.98;100427.80;1690149;85;21109;-74
2022/07/16 06:34:11;;;;;;;4.22;0.40;;;;;;;25.81;38.29;100421.35;1688898;84;21077;-74
2022/07/16 06:36:38;;;;;;;1.30;0.75;;;;;;;25.85;37.70;100425.69;1686137;83;21025;-75
2022/07/16 06:39:04;;;;;;;0.60;0.20;;;;;;;25.91;39.21;100426.45;1687240;83;21596;-73
2022/07/16 06:41:31;;;;;;;0.93;0.10;;;;;;;26.05;36.99;100427.44;1684164;83;21124;-80
2022/07/16 06:43:57;;;;;;;2.85;0.35;;;;;;;26.20;34.86;100431.89;1682065;83;21047;-77
2022/07/16 06:46:24;;;;;;;2.67;0.20;;;;;;;26.19;35.17;100427.54;1687846;83;21050;-74
2022/07/16 06:48:50;;;;;;;1.32;0.30;;;;;;;25.99;35.08;100432.14;1683974;84;21037;-81
2022/07/16 06:51:16;;;;;;;0.40;0.40;;;;;;;25.89;35.31;100432.19;1688115;83;21002;-77
2022/07/16 06:53:42;;;;;;;1.32;0.30;;;;;;;25.71;35.65;100429.66;1688881;84;21022;-77
2022/07/16 06:56:08;;;;;;;0.65;0.20;;;;;;;25.63;36.62;100428.33;1689425;84;22036;-72
2022/07/16 06:58:36;;;;;;;0.30;0.20;;;;;;;25.68;36.28;100424.76;1687535;85;21038;-82
2022/07/16 07:01:03;;;;;;;1.30;0.20;;;;;;;25.63;34.51;100420.70;1689901;84;21006;-84
2022/07/16 07:03:30;;;;;;;0.95;0.10;;;;;;;25.45;34.53;100429.87;1690818;85;21049;-87
2022/07/16 07:05:57;;;;;;;2.15;0.10;;;;;;;25.36;36.73;100423.95;1691657;85;21053;-85
2022/07/16 07:08:23;;;;;;;2.65;0.55;;;;;;;25.44;34.56;100426.86;1693535;85;20991;-84
2022/07/16 07:10:50;;;;;;;0.25;0.20;;;;;;;25.53;35.69;100426.27;1689821;84;21058;-86
2022/07/16 07:13:16;;;;;;;3.70;0.13;;;;;;;25.60;34.30;100422.66;1677145;83;21017;-84
2022/07/16 07:15:43;;;;;;;0.68;0.15;;;;;;;25.60;33.17;100415.84;1688139;83;21049;-83
2022/07/16 07:18:09;;;;;;;1.72;0.17;;;;;;;25.45;34.04;100416.22;1692022;85;21013;-85
2022/07/16 07:20:35;;;;;;;2.62;0.17;;;;;;;25.29;34.81;100423.45;1682372;83;22452;-83
2022/07/16 07:23:02;;;;;;;0.50;0.10;;;;;;;25.17;35.41;100422.43;1680022;83;21091;-85
2022/07/16 07:25:28;;;;;;;0.20;0.10;;;;;;;25.15;35.72;100414.53;1680301;83;21096;-83
2022/07/16 07:27:55;;;;;;;0.47;0.20;;;;;;;25.18;35.37;100418.59;1686410;83;21014;-84
2022/07/16 07:30:22;;;;;;;1.42;0.10;;;;;;;25.23;34.90;100420.76;1687257;83;21076;-81
2022/07/16 07:32:48;;;;;;;0.55;0.10;;;;;;;25.24;32.96;100418.31;1693229;83;21042;-83
2022/07/16 07:35:14;;;;;;;0.23;0.10;;;;;;;25.14;33.50;100410.16;1690888;84;21046;-77
2022/07/16 07:37:40;;;;;;;0.35;0.10;;;;;;;25.12;33.91;100410.19;1692957;85;21014;-85
2022/07/16 07:40:09;;;;;;;1.90;0.10;;;;;;;25.17;33.24;100409.59;1691543;83;21137;-85
2022/07/16 07:42:35;;;;;;;3.87;0.20;;;;;;;25.03;34.27;100409.96;1692853;83;21086;-85
2022/07/16 07:45:02;;;;;;;1.80;0.35;;;;;;;24.82;32.75;100411.45;1690284;83;20974;-83
2022/07/16 07:47:31;;;;;;;3.12;0.20;;;;;;;24.70;33.97;100409.63;1694773;83;21033;-82
2022/07/16 07:49:59;;;;;;;8.13;0.28;;;;;;;24.59;34.69;100410.23;1694545;82;21100;-75
2022/07/16 07:52:26;;;;;;;2.27;0.42;;;;;;;24.47;34.65;100412.45;1682527;81;20990;-88
2022/07/16 07:54:52;;;;;;;0.45;0.20;;;;;;;24.32;35.51;100411.96;1691422;83;20982;-84
2022/07/16 07:57:18;;;;;;;0.20;0.10;;;;;;;24.35;36.69;100409.22;1690402;83;20966;-84
2022/07/16 07:59:44;;;;;;;0.88;0.10;;;;;;;24.53;36.33;100409.18;1690005;83;21560;-82
2022/07/16 08:02:11;;;;;;;0.88;0.20;;;;;;;24.56;36.23;100403.16;1690375;83;21033;-81
2022/07/16 08:05:37;;;;;;;0.95;0.20;;;;;;;24.52;36.54;100400.17;1795597;78;22774;-86
2022/07/16 08:08:05;;;;;;;1.25;0.20;;;;;;;24.43;37.25;100400.45;1779920;80;21025;-82
2022/07/16 08:10:31;;;;;;;2.25;0.20;;;;;;;24.35;36.13;100396.95;1769560;80;21082;-72
2022/07/16 08:12:58;;;;;;;0.23;0.20;;;;;;;24.26;36.58;100396.19;1786889;79;21017;-85
2022/07/16 08:15:25;;;;;;;0.50;0.30;;;;;;;24.32;36.35;100386.61;1763149;80;21074;-85
2022/07/16 08:17:51;;;;;;;1.22;0.20;;;;;;;24.41;36.18;100393.95;1790412;79;21071;-85
2022/07/16 08:20:17;;;;;;;0.75;0.40;;;;;;;24.46;35.58;100393.09;1791056;80;21037;-78
2022/07/16 08:22:44;;;;;;;2.75;0.40;;;;;;;24.48;36.48;100397.72;1783269;80;21031;-75
2022/07/16 08:27:55;;;;;;;0.68;0.45;;;;;;;24.52;36.50;100398.00;1788678;80;21085;-77
2022/07/16 08:30:22;;;;;;;2.50;0.30;;;;;;;24.49;36.03;100397.44;1786890;80;20998;-78
2022/07/16 08:32:48;;;;;;;0.93;0.20;;;;;;;24.50;36.15;100390.07;1782090;80;21322;-78
2022/07/16 08:35:14;;;;;;;1.05;0.20;;;;;;;24.36;35.96;100387.16;1792179;80;21470;-79
2022/07/16 08:37:44;;;;;;;2.85;0.30;;;;;;;24.31;36.60;100390.44;1787517;80;21072;-78
2022/07/16 08:40:15;;;;;;;0.90;0.35;;;;;;;24.29;36.20;100386.63;1765205;79;20981;-78
2022/07/16 08:42:42;;;;;;;1.37;0.30;;;;;;;24.23;36.34;100389.12;1783420;80;21600;-79
2022/07/16 08:45:10;;;;;;;0.62;0.20;;;;;;;24.18;36.52;100387.21;1773166;80;21069;-81
2022/07/16 08:47:40;;;;;;;2.65;0.30;;;;;;;24.19;36.43;100386.69;1788433;80;21528;-78
2022/07/16 08:50:12;;;;;;;0.95;0.20;;;;;;;24.24;36.70;100383.39;1773366;79;21513;-78
2022/07/16 08:52:42;;;;;;;1.10;0.17;;;;;;;24.31;36.47;100380.36;1770566;80;21047;-72
2022/07/16 08:55:09;;;;;;;2.70;0.20;;;;;;;24.43;36.32;100384.11;1774302;79;21019;-79
2022/07/16 08:57:39;;;;;;;1.00;0.20;;;;;;;24.51;35.64;100375.37;1777272;80;21018;-76
2022/07/16 09:00:11;;;;;;;1.90;0.10;;;;;;;24.57;35.31;100374.83;1782344;80;20998;-80
2022/07/16 09:02:38;;;;;;;0.90;0.30;;;;;;;24.60;35.38;100368.27;1753257;81;21045;-78
2022/07/16 09:05:07;;;;;;;1.45;0.20;;;;;;;24.63;34.71;100374.50;1749784;81;21055;-80
2022/07/16 09:07:34;;;;;;;2.77;0.20;;;;;;;24.62;35.09;100371.52;1754444;81;21105;-79
2022/07/16 09:10:06;;;;;;;0.53;0.23;;;;;;;24.63;35.11;100364.96;1747772;81;21128;-81
2022/07/16 09:12:46;;;;;;;1.40;0.17;;;;;;;24.60;34.30;100370.16;1747440;81;21021;-81
2022/07/16 09:15:32;;;;;;;0.53;0.10;;;;;;;24.61;34.97;100362.27;1756902;81;22398;-79
2022/07/16 09:18:23;;;;;;;0.93;0.10;;;;;;;24.56;34.70;100367.73;1697837;83;21001;-80
2022/07/16 09:20:54;;;;;;;1.27;0.30;;;;;;;24.50;35.10;100366.91;1708293;83;21564;-76
2022/07/16 09:23:34;;;;;;;0.33;0.20;;;;;;;24.45;35.74;100354.14;1697523;83;21054;-74
2022/07/16 09:26:07;;;;;;;0.20;0.10;;;;;;;24.47;36.72;100362.85;1682664;85;21087;-77
2022/07/16 09:28:47;;;;;;;0.45;0.25;;;;;;;24.55;36.71;100357.95;1678535;84;21081;-72
2022/07/16 09:31:40;;;;;;;3.37;0.60;;;;;;;24.58;37.28;100361.45;1687175;84;21010;-77
2022/07/16 09:34:15;;;;;;;0.78;0.28;;;;;;;24.56;36.74;100359.56;1709032;83;21603;-72
2022/07/16 09:37:02;;;;;;;2.27;0.40;;;;;;;24.50;36.64;100358.73;1729855;82;21018;-78
2022/07/16 09:39:31;;;;;;;1.60;0.72;;;;;;;24.41;36.83;100353.08;1718568;83;21095;-77
2022/07/16 09:41:59;;;;;;;0.40;0.20;;;;;;;24.41;37.21;100353.08;1666828;84;21027;-78
2022/07/16 09:44:33;;;;;;;0.55;0.13;;;;;;;24.40;36.72;100359.61;1680426;81;21155;-81
2022/07/16 09:47:05;;;;;;;0.23;0.20;;;;;;;24.27;36.50;100354.77;1764882;81;21081;-79
2022/07/16 09:49:36;;;;;;;1.37;0.30;;;;;;;24.17;37.82;100360.28;1706520;84;21026;-78
2022/07/16 09:52:07;;;;;;;0.57;0.55;;;;;;;24.10;36.96;100364.09;1763704;81;21085;-81
2022/07/16 09:54:36;;;;;;;2.90;0.60;;;;;;;24.07;38.70;100365.19;1749565;81;21159;-72
2022/07/16 09:57:16;;;;;;;1.67;0.17;;;;;;;24.09;38.61;100362.48;1763488;80;20990;-77
2022/07/16 09:59:44;;;;;;;0.60;0.50;;;;;;;24.02;38.18;100366.59;1759707;81;20966;-82
2022/07/16 10:02:11;;;;;;;0.47;0.40;;;;;;;23.89;39.11;100359.83;1702561;82;21108;-78
2022/07/16 10:04:38;;;;;;;0.78;0.40;;;;;;;23.82;39.13;100362.02;1675610;84;21042;-81
2022/07/16 10:07:06;;;;;;;4.83;0.65;;;;;;;23.81;39.85;100355.77;1699282;84;21003;-80
2022/07/16 10:09:33;;;;;;;0.30;0.20;;;;;;;23.94;39.32;100357.09;1699771;84;21023;-81
2022/07/16 10:12:11;;;;;;;0.75;0.20;;;;;;;24.04;38.30;100354.33;1681507;84;21067;-75
2022/07/16 10:14:42;;;;;;;0.50;0.20;;;;;;;24.02;38.48;100354.34;1689676;84;21034;-79
2022/07/16 10:17:23;;;;;;;0.82;0.20;;;;;;;23.96;37.95;100350.83;1708503;83;21014;-71
2022/07/16 10:20:02;;;;;;;0.78;0.30;;;;;;;23.98;38.53;100347.80;1694975;84;21599;-74
2022/07/16 10:22:33;;;;;;;1.35;0.20;;;;;;;24.00;38.48;100342.92;1707300;83;21061;-78
2022/07/16 10:25:00;;;;;;;0.33;0.20;;;;;;;24.06;38.48;100337.72;1711362;83;21733;-78
2022/07/16 10:27:35;;;;;;;0.50;0.23;;;;;;;24.13;37.67;100339.59;1706494;83;21122;-77
2022/07/16 10:30:21;;;;;;;1.65;0.20;;;;;;;24.09;37.45;100333.05;1713444;83;21014;-79
2022/07/16 10:33:06;;;;;;;3.50;0.20;;;;;;;24.00;37.64;100334.20;1690755;84;21057;-78
2022/07/16 10:35:40;;;;;;;;;;;;;;;24.01;37.21;100326.84;1697383;84;21127;-77
2022/07/16 10:38:27;;;;;;;1.55;0.30;;;;;;;24.06;37.27;100323.55;1701071;83;20129;-79
2022/07/16 10:41:21;;;;;;;0.60;0.57;;;;;;;24.07;37.23;100327.08;1719861;83;21046;-79
2022/07/16 10:44:09;;;;;;;0.95;0.95;;;;;;;24.02;37.47;100331.20;1692233;83;21076;-70
2022/07/16 10:46:59;;;;;;;0.85;0.30;;;;;;;23.97;38.06;100325.21;1698657;83;21066;-75
2022/07/16 10:49:28;;;;;;;1.35;0.85;;;;;;;23.90;38.66;100326.89;1724093;83;21167;-74
2022/07/16 10:52:10;;;;;;;1.30;0.20;;;;;;;23.80;39.85;100331.54;1724216;83;21003;-77
2022/07/16 10:54:53;;;;;;;3.85;0.42;;;;;;;23.70;39.96;100332.36;1724352;83;21049;-76
2022/07/16 10:57:37;;;;;;;0.45;0.30;;;;;;;23.70;40.65;100331.00;1697621;83;20967;-80
2022/07/16 11:00:06;;;;;;;0.93;0.60;;;;;;;23.72;40.18;100328.81;1702715;84;21068;-73
2022/07/16 11:02:41;;;;;;;0.47;0.47;;;;;;;23.71;40.05;100327.17;1698139;84;20952;-75
2022/07/16 11:05:09;;;;;;;3.35;0.60;;;;;;;23.72;40.06;100326.09;1684292;84;21164;-77
2022/07/16 11:07:36;;;;;;;0.88;0.30;;;;;;;23.84;39.79;100324.45;1692913;84;21123;-76
2022/07/16 11:10:05;;;;;;;2.10;0.20;;;;;;;23.96;38.75;100320.88;1661628;86;21057;-74
2022/07/16 11:12:33;;;;;;;2.05;0.33;;;;;;;24.04;38.22;100318.13;1656826;85;20983;-80
2022/07/16 11:15:02;;;;;;;0.42;0.25;;;;;;;24.09;38.20;100315.36;1678766;84;21323;-77
2022/07/16 11:17:30;;;;;;;1.65;0.30;;;;;;;24.16;37.69;100313.70;1692133;84;21040;-75
2022/07/16 11:20:03;;;;;;;0.85;0.20;;;;;;;24.21;37.68;100315.86;1685518;84;21062;-75
2022/07/16 11:22:31;;;;;;;0.47;0.37;;;;;;;24.31;38.24;100314.98;1689790;84;21011;-76
2022/07/16 11:25:02;;;;;;;1.05;0.50;;;;;;;24.40;38.50;100307.86;1682106;85;21122;-82
2022/07/16 11:27:39;;;;;;;1.40;0.30;;;;;;;24.43;37.74;100315.48;1681439;85;21852;-74
2022/07/16 11:30:09;;;;;;;3.50;0.43;;;;;;;24.33;37.29;100307.34;1667803;85;21047;-78
2022/07/16 11:32:42;;;;;;;1.07;0.33;;;;;;;24.20;37.19;100316.13;1674244;85;21754;-80
2022/07/16 11:35:09;;;;;;;3.92;0.35;;;;;;;24.14;37.27;100313.17;1681695;85;20993;-76
2022/07/16 11:37:52;;;;;;;1.10;0.35;;;;;;;24.12;37.55;100304.47;1672554;85;21019;-77
2022/07/16 11:40:19;;;;;;;1.15;0.30;;;;;;;24.20;37.79;100307.96;1685495;85;21598;-83
2022/07/16 11:42:57;;;;;;;3.80;3.15;;;;;;;24.28;36.38;100308.76;1686500;85;21097;-78